sensor_id;sensor_type;location;lat;lon;timestamp;pressure;altitude;pressure_sealevel;temperature;humidity
61026;BME280;46911;32.650;-16.902;2022-09-30T00:01:40;101886.19;;;20.01;64.52
61026;BME280;46911;32.650;-16.902;2022-09-30T00:03:43;101891.91;;;20.07;64.37
61026;BME280;46911;32.650;-16.902;2022-09-30T00:05:55;101893.91;;;20.05;64.67
61026;BME280;46911;32.650;-16.902;2022-09-30T00:07:55;101878.38;;;19.98;64.47
61026;BME280;46911;32.650;-16.902;2022-09-30T00:10:01;101884.09;;;20.04;64.70
61026;BME280;46911;32.650;-16.902;2022-09-30T00:12:02;101860.69;;;19.94;64.99
61026;BME280;46911;32.650;-16.902;2022-09-30T00:14:05;101853.94;;;19.88;65.23
61026;BME280;46911;32.650;-16.902;2022-09-30T00:16:09;101874.75;;;19.87;65.68
61026;BME280;46911;32.650;-16.902;2022-09-30T00:18:11;101864.25;;;19.73;65.64
61026;BME280;46911;32.650;-16.902;2022-09-30T00:20:14;101869.69;;;19.73;65.72
61026;BME280;46911;32.650;-16.902;2022-09-30T00:22:19;101868.22;;;19.69;65.97
61026;BME280;46911;32.650;-16.902;2022-09-30T00:24:19;101879.91;;;19.69;66.05
61026;BME280;46911;32.650;-16.902;2022-09-30T00:26:25;101870.50;;;19.64;66.04
61026;BME280;46911;32.650;-16.902;2022-09-30T00:28:29;101878.91;;;19.70;65.74
61026;BME280;46911;32.650;-16.902;2022-09-30T00:30:35;101870.66;;;19.72;65.79
61026;BME280;46911;32.650;-16.902;2022-09-30T00:32:36;101874.25;;;19.72;65.64
61026;BME280;46911;32.650;-16.902;2022-09-30T00:34:40;101874.09;;;19.74;65.47
61026;BME280;46911;32.650;-16.902;2022-09-30T00:36:44;101876.16;;;19.82;65.33
61026;BME280;46911;32.650;-16.902;2022-09-30T00:38:46;101865.19;;;19.83;64.83
61026;BME280;46911;32.650;-16.902;2022-09-30T00:40:46;101865.81;;;19.97;64.61
61026;BME280;46911;32.650;-16.902;2022-09-30T00:42:54;101854.00;;;19.98;64.57
61026;BME280;46911;32.650;-16.902;2022-09-30T00:45:09;101861.84;;;20.11;63.98
61026;BME280;46911;32.650;-16.902;2022-09-30T00:49:45;101866.88;;;20.25;63.21
61026;BME280;46911;32.650;-16.902;2022-09-30T00:51:55;101864.44;;;20.32;63.20
61026;BME280;46911;32.650;-16.902;2022-09-30T00:54:03;101853.31;;;20.35;63.06
61026;BME280;46911;32.650;-16.902;2022-09-30T00:56:21;101852.34;;;20.36;63.07
61026;BME280;46911;32.650;-16.902;2022-09-30T01:00:50;101836.91;;;20.27;62.97
61026;BME280;46911;32.650;-16.902;2022-09-30T01:02:52;101823.06;;;20.10;63.35
61026;BME280;46911;32.650;-16.902;2022-09-30T01:04:54;101828.47;;;20.00;64.26
61026;BME280;46911;32.650;-16.902;2022-09-30T01:07:02;101836.16;;;19.95;64.56
61026;BME280;46911;32.650;-16.902;2022-09-30T01:09:04;101827.44;;;19.82;65.07
61026;BME280;46911;32.650;-16.902;2022-09-30T01:11:05;101844.91;;;19.78;65.83
61026;BME280;46911;32.650;-16.902;2022-09-30T01:13:06;101833.34;;;19.66;65.48
61026;BME280;46911;32.650;-16.902;2022-09-30T01:15:07;101834.03;;;19.68;65.96
61026;BME280;46911;32.650;-16.902;2022-09-30T01:21:58;101821.00;;;19.52;66.06
61026;BME280;46911;32.650;-16.902;2022-09-30T01:24:17;101804.88;;;19.40;66.24
61026;BME280;46911;32.650;-16.902;2022-09-30T01:26:41;101818.28;;;19.42;66.68
61026;BME280;46911;32.650;-16.902;2022-09-30T01:35:43;101816.50;;;19.31;67.29
61026;BME280;46911;32.650;-16.902;2022-09-30T01:42:44;101807.16;;;19.45;66.81
61026;BME280;46911;32.650;-16.902;2022-09-30T01:44:56;101800.78;;;19.46;66.60
61026;BME280;46911;32.650;-16.902;2022-09-30T01:51:38;101803.78;;;19.53;66.16
61026;BME280;46911;32.650;-16.902;2022-09-30T01:54:20;101803.19;;;19.49;66.15
61026;BME280;46911;32.650;-16.902;2022-09-30T01:56:51;101797.91;;;19.48;66.25
61026;BME280;46911;32.650;-16.902;2022-09-30T01:59:22;101799.31;;;19.42;66.54
61026;BME280;46911;32.650;-16.902;2022-09-30T02:01:29;101787.75;;;19.30;66.55
61026;BME280;46911;32.650;-16.902;2022-09-30T02:03:43;101792.16;;;19.31;66.47
61026;BME280;46911;32.650;-16.902;2022-09-30T02:05:51;101781.16;;;19.23;67.06
61026;BME280;46911;32.650;-16.902;2022-09-30T02:08:29;101780.56;;;19.19;67.13
61026;BME280;46911;32.650;-16.902;2022-09-30T02:10:51;101775.25;;;19.08;67.40
61026;BME280;46911;32.650;-16.902;2022-09-30T02:13:02;101792.06;;;19.12;67.48
61026;BME280;46911;32.650;-16.902;2022-09-30T02:15:08;101770.25;;;19.03;67.39
61026;BME280;46911;32.650;-16.902;2022-09-30T02:17:34;101778.94;;;19.07;67.65
61026;BME280;46911;32.650;-16.902;2022-09-30T02:19:48;101776.63;;;19.02;67.58
61026;BME280;46911;32.650;-16.902;2022-09-30T02:21:55;101765.63;;;18.94;67.73
61026;BME280;46911;32.650;-16.902;2022-09-30T02:24:02;101763.66;;;18.96;67.79
61026;BME280;46911;32.650;-16.902;2022-09-30T02:26:13;101771.03;;;18.94;67.95
61026;BME280;46911;32.650;-16.902;2022-09-30T02:28:21;101768.63;;;18.91;68.10
61026;BME280;46911;32.650;-16.902;2022-09-30T02:30:27;101762.72;;;18.86;68.11
61026;BME280;46911;32.650;-16.902;2022-09-30T02:32:48;101758.78;;;18.90;67.65
61026;BME280;46911;32.650;-16.902;2022-09-30T02:34:59;101751.84;;;18.76;67.75
61026;BME280;46911;32.650;-16.902;2022-09-30T02:37:08;101765.81;;;18.81;67.76
61026;BME280;46911;32.650;-16.902;2022-09-30T02:39:30;101767.06;;;18.77;68.10
61026;BME280;46911;32.650;-16.902;2022-09-30T02:41:44;101752.50;;;18.68;68.14
61026;BME280;46911;32.650;-16.902;2022-09-30T02:43:48;101759.22;;;18.74;67.85
61026;BME280;46911;32.650;-16.902;2022-09-30T02:46:05;101757.63;;;18.71;67.78
61026;BME280;46911;32.650;-16.902;2022-09-30T02:50:49;101768.44;;;18.71;67.93
61026;BME280;46911;32.650;-16.902;2022-09-30T02:59:20;101751.38;;;18.71;68.30
61026;BME280;46911;32.650;-16.902;2022-09-30T03:01:22;101729.97;;;18.58;68.09
61026;BME280;46911;32.650;-16.902;2022-09-30T03:03:30;101745.47;;;18.56;68.65
61026;BME280;46911;32.650;-16.902;2022-09-30T03:05:32;101748.88;;;18.58;68.76
61026;BME280;46911;32.650;-16.902;2022-09-30T03:07:33;101737.78;;;18.61;68.78
61026;BME280;46911;32.650;-16.902;2022-09-30T03:09:37;101733.78;;;18.55;68.90
61026;BME280;46911;32.650;-16.902;2022-09-30T03:11:42;101735.88;;;18.52;68.94
61026;BME280;46911;32.650;-16.902;2022-09-30T03:14:13;101725.00;;;18.42;69.26
61026;BME280;46911;32.650;-16.902;2022-09-30T03:19:10;101730.28;;;18.44;69.82
61026;BME280;46911;32.650;-16.902;2022-09-30T03:21:49;101730.28;;;18.44;70.06
61026;BME280;46911;32.650;-16.902;2022-09-30T03:30:25;101729.25;;;18.35;70.50
61026;BME280;46911;32.650;-16.902;2022-09-30T03:37:29;101735.13;;;18.40;70.83
61026;BME280;46911;32.650;-16.902;2022-09-30T03:39:49;101734.69;;;18.45;70.83
61026;BME280;46911;32.650;-16.902;2022-09-30T03:42:01;101734.97;;;18.42;71.00
61026;BME280;46911;32.650;-16.902;2022-09-30T03:44:15;101733.38;;;18.39;71.05
61026;BME280;46911;32.650;-16.902;2022-09-30T03:48:28;101737.34;;;18.35;71.61
61026;BME280;46911;32.650;-16.902;2022-09-30T03:50:35;101713.22;;;18.22;71.65
61026;BME280;46911;32.650;-16.902;2022-09-30T03:52:36;101729.25;;;18.35;71.79
61026;BME280;46911;32.650;-16.902;2022-09-30T03:54:50;101725.56;;;18.36;72.13
61026;BME280;46911;32.650;-16.902;2022-09-30T03:56:52;101712.16;;;18.34;72.28
61026;BME280;46911;32.650;-16.902;2022-09-30T03:58:53;101689.66;;;18.24;72.11
61026;BME280;46911;32.650;-16.902;2022-09-30T04:00:56;101708.28;;;18.27;72.25
61026;BME280;46911;32.650;-16.902;2022-09-30T04:03:02;101715.63;;;18.25;72.57
61026;BME280;46911;32.650;-16.902;2022-09-30T04:05:05;101722.63;;;18.28;72.45
61026;BME280;46911;32.650;-16.902;2022-09-30T04:07:08;101727.03;;;18.29;72.55
61026;BME280;46911;32.650;-16.902;2022-09-30T04:09:12;101731.81;;;18.36;72.41
61026;BME280;46911;32.650;-16.902;2022-09-30T04:11:16;101724.69;;;18.35;72.74
61026;BME280;46911;32.650;-16.902;2022-09-30T04:13:17;101727.38;;;18.35;72.78
61026;BME280;46911;32.650;-16.902;2022-09-30T04:15:18;101728.13;;;18.37;72.75
61026;BME280;46911;32.650;-16.902;2022-09-30T04:17:18;101691.88;;;18.19;72.83
61026;BME280;46911;32.650;-16.902;2022-09-30T04:19:24;101724.31;;;18.40;73.09
61026;BME280;46911;32.650;-16.902;2022-09-30T04:21:25;101691.56;;;18.33;73.07
61026;BME280;46911;32.650;-16.902;2022-09-30T04:23:29;101698.88;;;18.43;73.31
61026;BME280;46911;32.650;-16.902;2022-09-30T04:25:30;101703.41;;;18.42;73.24
61026;BME280;46911;32.650;-16.902;2022-09-30T04:27:31;101697.16;;;18.42;73.27
61026;BME280;46911;32.650;-16.902;2022-09-30T04:29:32;101687.75;;;18.36;73.23
61026;BME280;46911;32.650;-16.902;2022-09-30T04:31:33;101685.88;;;18.36;73.30
61026;BME280;46911;32.650;-16.902;2022-09-30T04:33:33;101698.13;;;18.40;73.54
61026;BME280;46911;32.650;-16.902;2022-09-30T04:35:36;101700.97;;;18.39;73.64
61026;BME280;46911;32.650;-16.902;2022-09-30T04:37:44;101712.91;;;18.36;73.79
61026;BME280;46911;32.650;-16.902;2022-09-30T04:39:48;101720.25;;;18.34;73.68
61026;BME280;46911;32.650;-16.902;2022-09-30T04:41:49;101707.44;;;18.27;73.93
61026;BME280;46911;32.650;-16.902;2022-09-30T04:43:53;101720.03;;;18.37;73.98
61026;BME280;46911;32.650;-16.902;2022-09-30T04:45:55;101712.63;;;18.39;73.95
61026;BME280;46911;32.650;-16.902;2022-09-30T04:48:00;101708.94;;;18.40;74.27
61026;BME280;46911;32.650;-16.902;2022-09-30T04:50:07;101695.56;;;18.39;74.17
61026;BME280;46911;32.650;-16.902;2022-09-30T04:52:10;101697.66;;;18.35;74.36
61026;BME280;46911;32.650;-16.902;2022-09-30T04:54:16;101694.38;;;18.32;74.48
61026;BME280;46911;32.650;-16.902;2022-09-30T04:56:19;101684.09;;;18.26;74.51
61026;BME280;46911;32.650;-16.902;2022-09-30T04:58:20;101700.88;;;18.29;74.62
61026;BME280;46911;32.650;-16.902;2022-09-30T05:00:26;101708.16;;;18.29;74.66
61026;BME280;46911;32.650;-16.902;2022-09-30T05:02:30;101706.28;;;18.29;74.81
61026;BME280;46911;32.650;-16.902;2022-09-30T05:04:33;101693.06;;;18.26;74.73
61026;BME280;46911;32.650;-16.902;2022-09-30T05:06:37;101701.50;;;18.33;74.99
61026;BME280;46911;32.650;-16.902;2022-09-30T05:08:40;101703.94;;;18.36;74.98
61026;BME280;46911;32.650;-16.902;2022-09-30T05:10:42;101699.75;;;18.32;74.73
61026;BME280;46911;32.650;-16.902;2022-09-30T05:12:43;101716.06;;;18.42;74.64
61026;BME280;46911;32.650;-16.902;2022-09-30T05:14:45;101713.94;;;18.45;74.60
61026;BME280;46911;32.650;-16.902;2022-09-30T05:16:48;101711.00;;;18.48;74.42
61026;BME280;46911;32.650;-16.902;2022-09-30T05:18:52;101711.84;;;18.49;74.43
61026;BME280;46911;32.650;-16.902;2022-09-30T05:20:55;101706.16;;;18.52;74.14
61026;BME280;46911;32.650;-16.902;2022-09-30T05:23:04;101697.94;;;18.53;73.76
61026;BME280;46911;32.650;-16.902;2022-09-30T05:25:06;101704.25;;;18.64;73.67
61026;BME280;46911;32.650;-16.902;2022-09-30T05:27:11;101695.56;;;18.60;73.33
61026;BME280;46911;32.650;-16.902;2022-09-30T05:29:15;101701.75;;;18.72;73.18
61026;BME280;46911;32.650;-16.902;2022-09-30T05:31:16;101697.78;;;18.76;72.42
61026;BME280;46911;32.650;-16.902;2022-09-30T05:33:17;101686.09;;;18.76;72.20
61026;BME280;46911;32.650;-16.902;2022-09-30T05:35:17;101692.97;;;18.80;72.16
61026;BME280;46911;32.650;-16.902;2022-09-30T05:37:18;101695.13;;;18.86;71.63
61026;BME280;46911;32.650;-16.902;2022-09-30T05:39:22;101703.16;;;18.97;71.08
61026;BME280;46911;32.650;-16.902;2022-09-30T05:41:23;101691.66;;;18.95;70.76
61026;BME280;46911;32.650;-16.902;2022-09-30T05:43:29;101703.94;;;19.09;70.42
61026;BME280;46911;32.650;-16.902;2022-09-30T05:45:29;101701.22;;;19.09;69.84
61026;BME280;46911;32.650;-16.902;2022-09-30T05:47:31;101706.69;;;19.19;69.75
61026;BME280;46911;32.650;-16.902;2022-09-30T05:49:35;101705.56;;;19.21;69.43
61026;BME280;46911;32.650;-16.902;2022-09-30T05:51:35;101712.53;;;19.24;69.24
61026;BME280;46911;32.650;-16.902;2022-09-30T05:53:39;101710.41;;;19.28;68.80
61026;BME280;46911;32.650;-16.902;2022-09-30T05:55:46;101703.72;;;19.22;68.37
61026;BME280;46911;32.650;-16.902;2022-09-30T05:57:50;101710.69;;;19.24;68.47
61026;BME280;46911;32.650;-16.902;2022-09-30T05:59:58;101718.22;;;19.21;68.55
61026;BME280;46911;32.650;-16.902;2022-09-30T06:01:59;101698.53;;;19.09;68.61
61026;BME280;46911;32.650;-16.902;2022-09-30T06:04:00;101689.13;;;19.03;68.64
61026;BME280;46911;32.650;-16.902;2022-09-30T06:06:04;101693.81;;;19.01;68.87
61026;BME280;46911;32.650;-16.902;2022-09-30T06:08:07;101694.94;;;18.99;69.00
61026;BME280;46911;32.650;-16.902;2022-09-30T06:10:08;101691.00;;;18.82;69.41
61026;BME280;46911;32.650;-16.902;2022-09-30T06:12:11;101695.94;;;18.77;69.51
61026;BME280;46911;32.650;-16.902;2022-09-30T06:14:14;101679.81;;;18.65;69.91
61026;BME280;46911;32.650;-16.902;2022-09-30T06:16:19;101690.94;;;18.72;70.03
61026;BME280;46911;32.650;-16.902;2022-09-30T06:18:20;101685.66;;;18.70;70.33
61026;BME280;46911;32.650;-16.902;2022-09-30T06:20:21;101699.16;;;18.70;70.10
61026;BME280;46911;32.650;-16.902;2022-09-30T06:22:22;101703.13;;;18.66;70.53
61026;BME280;46911;32.650;-16.902;2022-09-30T06:24:25;101716.19;;;18.61;70.86
61026;BME280;46911;32.650;-16.902;2022-09-30T06:26:26;101702.63;;;18.51;71.06
61026;BME280;46911;32.650;-16.902;2022-09-30T06:28:27;101702.75;;;18.50;71.05
61026;BME280;46911;32.650;-16.902;2022-09-30T06:30:28;101708.47;;;18.56;71.16
61026;BME280;46911;32.650;-16.902;2022-09-30T06:32:31;101695.81;;;18.57;71.34
61026;BME280;46911;32.650;-16.902;2022-09-30T06:34:32;101712.81;;;18.69;71.14
61026;BME280;46911;32.650;-16.902;2022-09-30T06:36:35;101707.88;;;18.74;70.82
61026;BME280;46911;32.650;-16.902;2022-09-30T06:38:36;101706.63;;;18.78;70.97
61026;BME280;46911;32.650;-16.902;2022-09-30T06:40:39;101698.66;;;18.77;70.83
61026;BME280;46911;32.650;-16.902;2022-09-30T06:42:40;101696.69;;;18.79;71.23
61026;BME280;46911;32.650;-16.902;2022-09-30T06:44:41;101676.41;;;18.73;70.99
61026;BME280;46911;32.650;-16.902;2022-09-30T06:46:44;101675.84;;;18.69;71.21
61026;BME280;46911;32.650;-16.902;2022-09-30T06:48:45;101691.06;;;18.70;71.23
61026;BME280;46911;32.650;-16.902;2022-09-30T06:50:46;101711.41;;;18.74;71.08
61026;BME280;46911;32.650;-16.902;2022-09-30T06:52:47;101699.16;;;18.70;71.02
61026;BME280;46911;32.650;-16.902;2022-09-30T06:54:53;101714.25;;;18.73;71.19
61026;BME280;46911;32.650;-16.902;2022-09-30T06:56:59;101690.63;;;18.65;71.03
61026;BME280;46911;32.650;-16.902;2022-09-30T06:59:00;101702.00;;;18.69;71.20
61026;BME280;46911;32.650;-16.902;2022-09-30T07:01:04;101709.41;;;18.67;71.44
61026;BME280;46911;32.650;-16.902;2022-09-30T07:03:05;101705.97;;;18.65;71.37
61026;BME280;46911;32.650;-16.902;2022-09-30T07:05:11;101726.78;;;18.74;71.18
61026;BME280;46911;32.650;-16.902;2022-09-30T07:07:14;101719.34;;;18.66;71.17
61026;BME280;46911;32.650;-16.902;2022-09-30T07:09:15;101736.16;;;18.70;70.91
61026;BME280;46911;32.650;-16.902;2022-09-30T07:11:17;101740.16;;;18.76;70.70
61026;BME280;46911;32.650;-16.902;2022-09-30T07:13:18;101748.34;;;18.85;70.64
61026;BME280;46911;32.650;-16.902;2022-09-30T07:15:20;101709.88;;;18.72;70.41
61026;BME280;46911;32.650;-16.902;2022-09-30T07:17:24;101735.38;;;19.00;69.79
61026;BME280;46911;32.650;-16.902;2022-09-30T07:19:25;101704.44;;;18.93;69.50
61026;BME280;46911;32.650;-16.902;2022-09-30T07:21:25;101710.38;;;19.08;68.78
61026;BME280;46911;32.650;-16.902;2022-09-30T07:23:27;101712.50;;;19.14;68.48
61026;BME280;46911;32.650;-16.902;2022-09-30T07:25:27;101728.66;;;19.35;67.40
61026;BME280;46911;32.650;-16.902;2022-09-30T07:27:32;101734.53;;;19.40;67.49
61026;BME280;46911;32.650;-16.902;2022-09-30T07:29:36;101723.13;;;19.47;67.38
61026;BME280;46911;32.650;-16.902;2022-09-30T07:31:37;101707.78;;;19.47;66.90
61026;BME280;46911;32.650;-16.902;2022-09-30T07:33:39;101713.19;;;19.57;66.55
61026;BME280;46911;32.650;-16.902;2022-09-30T07:35:48;101703.81;;;19.61;66.49
61026;BME280;46911;32.650;-16.902;2022-09-30T07:37:54;101700.66;;;19.56;66.14
61026;BME280;46911;32.650;-16.902;2022-09-30T07:39:59;101705.66;;;19.61;66.42
61026;BME280;46911;32.650;-16.902;2022-09-30T07:42:03;101709.06;;;19.53;66.46
61026;BME280;46911;32.650;-16.902;2022-09-30T07:44:11;101719.34;;;19.59;66.47
61026;BME280;46911;32.650;-16.902;2022-09-30T07:46:19;101720.47;;;19.56;66.50
61026;BME280;46911;32.650;-16.902;2022-09-30T07:48:22;101729.44;;;19.57;66.68
61026;BME280;46911;32.650;-16.902;2022-09-30T07:50:41;101733.56;;;19.51;66.58
61026;BME280;46911;32.650;-16.902;2022-09-30T07:52:45;101726.28;;;19.42;66.89
61026;BME280;46911;32.650;-16.902;2022-09-30T07:54:48;101737.69;;;19.46;67.16
61026;BME280;46911;32.650;-16.902;2022-09-30T07:56:51;101739.06;;;19.40;67.50
61026;BME280;46911;32.650;-16.902;2022-09-30T07:58:57;101748.50;;;19.46;67.56
61026;BME280;46911;32.650;-16.902;2022-09-30T08:01:02;101734.25;;;19.44;67.70
61026;BME280;46911;32.650;-16.902;2022-09-30T08:03:03;101751.38;;;19.54;67.50
61026;BME280;46911;32.650;-16.902;2022-09-30T08:05:05;101747.84;;;19.63;67.22
61026;BME280;46911;32.650;-16.902;2022-09-30T08:07:13;101752.44;;;19.72;66.75
61026;BME280;46911;32.650;-16.902;2022-09-30T08:09:17;101745.69;;;19.67;66.71
61026;BME280;46911;32.650;-16.902;2022-09-30T08:11:24;101765.69;;;19.76;66.88
61026;BME280;46911;32.650;-16.902;2022-09-30T08:13:25;101751.69;;;19.70;66.88
61026;BME280;46911;32.650;-16.902;2022-09-30T08:15:26;101759.56;;;19.73;67.21
61026;BME280;46911;32.650;-16.902;2022-09-30T08:17:27;101774.97;;;19.83;67.06
61026;BME280;46911;32.650;-16.902;2022-09-30T08:19:29;101771.88;;;19.87;67.05
61026;BME280;46911;32.650;-16.902;2022-09-30T08:21:33;101772.56;;;19.89;67.03
61026;BME280;46911;32.650;-16.902;2022-09-30T08:23:34;101777.44;;;19.96;67.02
61026;BME280;46911;32.650;-16.902;2022-09-30T08:25:37;101781.16;;;20.04;67.08
61026;BME280;46911;32.650;-16.902;2022-09-30T08:27:41;101781.44;;;20.11;66.86
61026;BME280;46911;32.650;-16.902;2022-09-30T08:29:45;101768.34;;;20.16;66.95
61026;BME280;46911;32.650;-16.902;2022-09-30T08:31:46;101772.31;;;20.32;66.52
61026;BME280;46911;32.650;-16.902;2022-09-30T08:33:52;101793.88;;;20.53;65.80
61026;BME280;46911;32.650;-16.902;2022-09-30T08:35:53;101791.72;;;20.66;65.49
61026;BME280;46911;32.650;-16.902;2022-09-30T08:37:55;101794.28;;;20.78;65.32
61026;BME280;46911;32.650;-16.902;2022-09-30T08:39:58;101786.41;;;20.84;65.06
61026;BME280;46911;32.650;-16.902;2022-09-30T08:42:32;101802.09;;;21.00;64.68
61026;BME280;46911;32.650;-16.902;2022-09-30T08:44:46;101806.78;;;21.08;64.83
61026;BME280;46911;32.650;-16.902;2022-09-30T08:47:16;101809.50;;;21.18;64.62
61026;BME280;46911;32.650;-16.902;2022-09-30T08:51:44;101808.31;;;21.30;64.72
61026;BME280;46911;32.650;-16.902;2022-09-30T08:53:47;101820.25;;;21.47;64.43
61026;BME280;46911;32.650;-16.902;2022-09-30T08:55:49;101810.06;;;21.59;63.98
61026;BME280;46911;32.650;-16.902;2022-09-30T08:57:54;101815.09;;;21.82;63.57
61026;BME280;46911;32.650;-16.902;2022-09-30T09:00:00;101811.78;;;22.06;63.06
61026;BME280;46911;32.650;-16.902;2022-09-30T09:04:21;101805.22;;;22.45;62.26
61026;BME280;46911;32.650;-16.902;2022-09-30T09:06:30;101801.19;;;22.49;62.09
61026;BME280;46911;32.650;-16.902;2022-09-30T09:08:54;101804.63;;;22.51;61.88
61026;BME280;46911;32.650;-16.902;2022-09-30T09:11:08;101810.41;;;22.74;61.33
61026;BME280;46911;32.650;-16.902;2022-09-30T09:20:30;101820.22;;;23.72;59.60
61026;BME280;46911;32.650;-16.902;2022-09-30T09:22:33;101824.94;;;23.62;58.99
61026;BME280;46911;32.650;-16.902;2022-09-30T09:24:40;101823.03;;;23.54;59.17
61026;BME280;46911;32.650;-16.902;2022-09-30T09:26:43;101826.25;;;23.49;58.83
61026;BME280;46911;32.650;-16.902;2022-09-30T09:31:03;101832.84;;;23.38;59.22
61026;BME280;46911;32.650;-16.902;2022-09-30T09:33:21;101837.94;;;23.76;58.99
61026;BME280;46911;32.650;-16.902;2022-09-30T09:35:32;101826.03;;;24.45;56.94
61026;BME280;46911;32.650;-16.902;2022-09-30T09:44:58;101831.78;;;24.25;55.88
61026;BME280;46911;32.650;-16.902;2022-09-30T09:47:12;101836.53;;;24.06;56.39
61026;BME280;46911;32.650;-16.902;2022-09-30T09:51:34;101846.38;;;23.91;57.04
61026;BME280;46911;32.650;-16.902;2022-09-30T09:55:49;101835.81;;;25.61;53.19
61026;BME280;46911;32.650;-16.902;2022-09-30T09:58:27;101846.31;;;26.44;51.21
61026;BME280;46911;32.650;-16.902;2022-09-30T10:00:24;101846.50;;;27.42;49.42
61026;BME280;46911;32.650;-16.902;2022-09-30T10:02:44;101848.91;;;28.98;46.25
61026;BME280;46911;32.650;-16.902;2022-09-30T10:04:48;101854.13;;;30.60;42.72
61026;BME280;46911;32.650;-16.902;2022-09-30T10:07:12;101843.50;;;31.96;39.12
61026;BME280;46911;32.650;-16.902;2022-09-30T10:09:23;101828.03;;;31.88;38.20
61026;BME280;46911;32.650;-16.902;2022-09-30T10:11:26;101831.59;;;32.91;36.74
61026;BME280;46911;32.650;-16.902;2022-09-30T10:15:33;101835.00;;;33.56;35.59
61026;BME280;46911;32.650;-16.902;2022-09-30T10:17:37;101845.19;;;34.23;34.86
61026;BME280;46911;32.650;-16.902;2022-09-30T10:19:39;101845.34;;;34.28;34.58
61026;BME280;46911;32.650;-16.902;2022-09-30T10:21:44;101837.03;;;34.82;33.54
61026;BME280;46911;32.650;-16.902;2022-09-30T10:23:48;101838.78;;;34.52;33.63
61026;BME280;46911;32.650;-16.902;2022-09-30T10:26:14;101845.13;;;35.19;33.30
61026;BME280;46911;32.650;-16.902;2022-09-30T10:28:23;101843.09;;;34.91;33.19
61026;BME280;46911;32.650;-16.902;2022-09-30T10:30:47;101835.59;;;34.25;33.75
61026;BME280;46911;32.650;-16.902;2022-09-30T10:32:49;101832.75;;;33.46;35.06
61026;BME280;46911;32.650;-16.902;2022-09-30T10:35:05;101832.06;;;34.18;33.96
61026;BME280;46911;32.650;-16.902;2022-09-30T10:37:20;101837.81;;;34.16;33.85
61026;BME280;46911;32.650;-16.902;2022-09-30T10:39:47;101842.19;;;34.24;34.48
61026;BME280;46911;32.650;-16.902;2022-09-30T10:42:17;101843.94;;;34.07;33.93
61026;BME280;46911;32.650;-16.902;2022-09-30T10:44:22;101840.41;;;34.30;33.57
61026;BME280;46911;32.650;-16.902;2022-09-30T10:46:34;101843.97;;;33.88;34.38
61026;BME280;46911;32.650;-16.902;2022-09-30T10:48:47;101853.78;;;32.84;36.05
61026;BME280;46911;32.650;-16.902;2022-09-30T10:50:54;101852.44;;;31.26;39.03
61026;BME280;46911;32.650;-16.902;2022-09-30T10:53:09;101850.66;;;29.76;42.07
61026;BME280;46911;32.650;-16.902;2022-09-30T10:57:27;101823.22;;;28.19;45.73
61026;BME280;46911;32.650;-16.902;2022-09-30T10:59:36;101835.53;;;27.42;48.28
61026;BME280;46911;32.650;-16.902;2022-09-30T11:01:44;101826.34;;;27.64;48.01
61026;BME280;46911;32.650;-16.902;2022-09-30T11:05:52;101836.56;;;27.40;48.86
61026;BME280;46911;32.650;-16.902;2022-09-30T11:10:24;101842.69;;;27.13;50.05
61026;BME280;46911;32.650;-16.902;2022-09-30T11:12:44;101847.19;;;28.68;46.25
61026;BME280;46911;32.650;-16.902;2022-09-30T11:19:01;101846.31;;;27.43;48.55
61026;BME280;46911;32.650;-16.902;2022-09-30T11:21:14;101846.69;;;26.87;50.29
61026;BME280;46911;32.650;-16.902;2022-09-30T11:23:34;101833.81;;;26.72;51.17
61026;BME280;46911;32.650;-16.902;2022-09-30T11:30:38;101861.69;;;25.82;53.61
61026;BME280;46911;32.650;-16.902;2022-09-30T11:33:21;101861.88;;;26.89;51.14
61026;BME280;46911;32.650;-16.902;2022-09-30T11:40:29;101848.84;;;26.77;51.14
61026;BME280;46911;32.650;-16.902;2022-09-30T11:42:45;101858.06;;;26.52;51.06
61026;BME280;46911;32.650;-16.902;2022-09-30T11:44:56;101855.13;;;26.31;52.05
61026;BME280;46911;32.650;-16.902;2022-09-30T11:56:48;101826.56;;;30.53;42.32
61026;BME280;46911;32.650;-16.902;2022-09-30T11:58:55;101827.59;;;28.78;45.48
61026;BME280;46911;32.650;-16.902;2022-09-30T12:03:32;101817.16;;;30.07;43.75
61026;BME280;46911;32.650;-16.902;2022-09-30T12:05:56;101809.94;;;29.93;43.25
61026;BME280;46911;32.650;-16.902;2022-09-30T12:08:18;101819.91;;;29.23;44.43
61026;BME280;46911;32.650;-16.902;2022-09-30T12:10:50;101812.19;;;28.34;45.89
61026;BME280;46911;32.650;-16.902;2022-09-30T12:12:57;101812.25;;;27.82;46.93
61026;BME280;46911;32.650;-16.902;2022-09-30T12:15:04;101807.19;;;27.34;48.96
61026;BME280;46911;32.650;-16.902;2022-09-30T12:19:28;101809.72;;;27.36;49.28
61026;BME280;46911;32.650;-16.902;2022-09-30T12:21:43;101804.34;;;27.58;48.63
61026;BME280;46911;32.650;-16.902;2022-09-30T12:23:52;101795.19;;;27.50;48.22
61026;BME280;46911;32.650;-16.902;2022-09-30T12:25:58;101795.28;;;27.57;47.84
61026;BME280;46911;32.650;-16.902;2022-09-30T12:30:27;101782.78;;;26.80;49.65
61026;BME280;46911;32.650;-16.902;2022-09-30T12:44:43;101800.78;;;26.51;51.08
61026;BME280;46911;32.650;-16.902;2022-09-30T12:49:13;101807.31;;;25.95;52.72
61026;BME280;46911;32.650;-16.902;2022-09-30T12:51:42;101800.72;;;26.13;51.84
61026;BME280;46911;32.650;-16.902;2022-09-30T12:53:49;101795.09;;;25.74;52.94
61026;BME280;46911;32.650;-16.902;2022-09-30T12:56:09;101789.56;;;24.95;54.97
61026;BME280;46911;32.650;-16.902;2022-09-30T12:58:26;101791.44;;;24.78;54.47
61026;BME280;46911;32.650;-16.902;2022-09-30T13:00:36;101800.16;;;24.73;55.40